createdAt,value
2023-04-12T00:01:26.299Z,95854.97
2023-04-12T00:04:00.297Z,95848.06
2023-04-12T00:06:35.093Z,95838.50
2023-04-12T00:09:08.541Z,95834.69
2023-04-12T00:11:41.188Z,95829.69
2023-04-12T00:14:13.908Z,95835.03
2023-04-12T00:16:46.574Z,95829.31
2023-04-12T00:19:19.581Z,95822.44
2023-04-12T00:21:53.620Z,95817.09
2023-04-12T00:24:26.859Z,95809.06
2023-04-12T00:27:02.261Z,95805.59
2023-04-12T00:29:34.944Z,95798.75
2023-04-12T00:32:07.974Z,95792.28
2023-04-12T00:34:40.590Z,95778.13
2023-04-12T00:37:14.659Z,95760.63
2023-04-12T00:39:47.365Z,95754.50
2023-04-12T00:42:20.075Z,95747.25
2023-04-12T00:44:52.730Z,95747.25
2023-04-12T00:47:25.685Z,95741.88
2023-04-12T00:49:58.328Z,95744.22
2023-04-12T00:52:34.288Z,95727.72
2023-04-12T00:55:08.325Z,95715.13
2023-04-12T00:57:41.115Z,95710.09
2023-04-12T01:00:14.217Z,95717.78
2023-04-12T01:02:48.377Z,95707.44
2023-04-12T01:05:23.556Z,95707.44
2023-04-12T01:08:05.241Z,95703.63
2023-04-12T01:10:42.805Z,95698.28
2023-04-12T01:13:22.871Z,95696.38
2023-04-12T01:15:59.765Z,95695.28
2023-04-12T01:18:34.795Z,95681.09
2023-04-12T01:21:09.791Z,95680.34
2023-04-12T01:23:57.547Z,95682.22
2023-04-12T01:26:34.494Z,95677.22
2023-04-12T01:29:11.979Z,95670.66
2023-04-12T01:31:50.606Z,95672.13
2023-04-12T01:34:24.114Z,95682.75
2023-04-12T01:36:58.419Z,95684.66
2023-04-12T01:39:32.568Z,95680.00
2023-04-12T01:42:05.331Z,95688.03
2023-04-12T01:44:39.639Z,95660.84
2023-04-12T01:47:12.370Z,95645.47
2023-04-12T01:49:51.450Z,95638.16
2023-04-12T01:52:26.523Z,95644.63
2023-04-12T01:55:00.559Z,95640.31
2023-04-12T01:57:34.143Z,95637.19
2023-04-12T02:00:11.119Z,95621.50
2023-04-12T02:02:45.087Z,95594.31
2023-04-12T02:05:18.511Z,95577.84
2023-04-12T02:07:51.747Z,95594.56
2023-04-12T02:10:29.532Z,95608.66
2023-04-12T02:13:02.462Z,95615.47
2023-04-12T02:15:37.286Z,95602.44
2023-04-12T02:18:09.982Z,95611.94
2023-04-12T02:20:43.907Z,95604.66
2023-04-12T02:23:16.684Z,95608.50
2023-04-12T02:25:49.427Z,95617.28
2023-04-12T02:28:23.224Z,95601.66
2023-04-12T02:30:57.560Z,95595.53
2023-04-12T02:33:30.754Z,95586.38
2023-04-12T02:36:03.870Z,95595.97
2023-04-12T02:38:36.633Z,95585.59
2023-04-12T02:41:09.609Z,95564.22
2023-04-12T02:43:42.220Z,95553.50
2023-04-12T02:46:18.368Z,95566.47
2023-04-12T02:48:51.075Z,95603.44
2023-04-12T02:51:23.797Z,95603.00
2023-04-12T02:53:56.750Z,95598.00
2023-04-12T02:56:29.978Z,95600.25
2023-04-12T02:59:03.107Z,95594.56
2023-04-12T03:01:39.471Z,95568.94
2023-04-12T03:04:12.393Z,95551.78
2023-04-12T03:06:54.292Z,95550.22
2023-04-12T03:09:27.209Z,95582.31
2023-04-12T03:12:00.053Z,95580.41
2023-04-12T03:14:32.849Z,95576.63
2023-04-12T03:17:07.498Z,95578.50
2023-04-12T03:19:40.302Z,95561.34
2023-04-12T03:22:13.382Z,95563.25
2023-04-12T03:24:46.120Z,95555.66
2023-04-12T03:27:18.874Z,95534.28
2023-04-12T03:29:52.270Z,95537.72
2023-04-12T03:32:27.071Z,95520.91
2023-04-12T03:35:00.379Z,95524.34
2023-04-12T03:37:33.278Z,95518.69
2023-04-12T03:40:07.370Z,95508.78
2023-04-12T03:42:40.201Z,95511.44
2023-04-12T03:45:13.296Z,95514.44
2023-04-12T03:47:47.517Z,95514.78
2023-04-12T03:50:20.838Z,95512.09
2023-04-12T03:52:53.584Z,95502.19
2023-04-12T03:55:26.269Z,95482.34
2023-04-12T03:57:58.992Z,95478.91
2023-04-12T04:00:32.123Z,95453.72
2023-04-12T04:03:06.650Z,95436.09
2023-04-12T04:05:39.580Z,95437.34
2023-04-12T04:08:12.305Z,95457.59
2023-04-12T04:10:45.038Z,95451.50
2023-04-12T04:13:17.750Z,95459.53
2023-04-12T04:15:53.278Z,95479.34
2023-04-12T04:18:27.347Z,95465.53
2023-04-12T04:21:00.139Z,95447.25
2023-04-12T04:23:38.557Z,95456.06
2023-04-12T04:26:11.561Z,95463.31
2023-04-12T04:28:45.611Z,95456.84
2023-04-12T04:31:18.461Z,95454.91
2023-04-12T04:33:52.644Z,95471.75
2023-04-12T04:36:26.484Z,95471.75
2023-04-12T04:38:59.147Z,95465.25
2023-04-12T04:41:34.567Z,95470.28
2023-04-12T04:44:09.758Z,95460.00
2023-04-12T04:46:42.447Z,95465.69
2023-04-12T04:49:16.735Z,95451.97
2023-04-12T04:51:49.543Z,95465.00
2023-04-12T04:54:22.262Z,95453.97
2023-04-12T04:56:54.978Z,95449.03
2023-04-12T04:59:28.049Z,95450.56
2023-04-12T05:02:00.802Z,95448.34
2023-04-12T05:04:35.407Z,95441.88
2023-04-12T05:07:08.063Z,95428.50
2023-04-12T05:09:41.216Z,95419.75
2023-04-12T05:12:14.300Z,95415.94
2023-04-12T05:14:51.479Z,95426.28
2023-04-12T05:17:25.004Z,95419.81
2023-04-12T05:19:59.045Z,95421.28
2023-04-12T05:22:32.762Z,95419.81
2023-04-12T05:25:06.384Z,95417.94
2023-04-12T05:27:39.103Z,95403.00
2023-04-12T05:30:12.373Z,95397.66
2023-04-12T05:32:45.298Z,95400.75
2023-04-12T05:35:19.671Z,95398.84
2023-04-12T05:37:52.336Z,95406.53
2023-04-12T05:40:25.014Z,95405.81
2023-04-12T05:42:57.706Z,95386.72
2023-04-12T05:45:30.419Z,95383.38
2023-04-12T05:48:03.535Z,95374.59
2023-04-12T05:50:37.680Z,95376.94
2023-04-12T05:53:10.682Z,95366.75
2023-04-12T05:55:43.802Z,95365.59
2023-04-12T05:58:16.775Z,95356.50
2023-04-12T06:00:49.739Z,95361.16
2023-04-12T06:03:23.814Z,95370.00
2023-04-12T06:05:58.513Z,95358.25
2023-04-12T06:08:31.378Z,95350.28
2023-04-12T06:11:04.185Z,95333.16
2023-04-12T06:13:36.859Z,95332.84
2023-04-12T06:16:09.749Z,95316.84
2023-04-12T06:18:43.890Z,95304.28
2023-04-12T06:21:18.054Z,95309.72
2023-04-12T06:23:50.840Z,95309.75
2023-04-12T06:26:23.568Z,95289.16
2023-04-12T06:28:56.798Z,95293.44
2023-04-12T06:31:29.785Z,95283.56
2023-04-12T06:34:02.497Z,95285.91
2023-04-12T06:36:36.577Z,95288.66
2023-04-12T06:39:09.384Z,95279.53
2023-04-12T06:41:43.778Z,95283.81
2023-04-12T06:44:16.442Z,95283.84
2023-04-12T06:46:49.188Z,95288.09
2023-04-12T06:49:21.951Z,95288.50
2023-04-12T06:51:56.040Z,95285.09
2023-04-12T06:54:28.786Z,95280.91
2023-04-12T06:57:02.178Z,95276.38
2023-04-12T06:59:34.942Z,95286.09
2023-04-12T07:02:08.082Z,95263.19
2023-04-12T07:04:40.822Z,95270.19
2023-04-12T07:07:15.025Z,95264.53
2023-04-12T07:09:48.410Z,95259.31
2023-04-12T07:12:21.512Z,95257.94
2023-04-12T07:14:54.183Z,95253.09
2023-04-12T07:17:27.620Z,95240.19
2023-04-12T07:20:00.261Z,95234.97
2023-04-12T07:22:34.437Z,95244.69
2023-04-12T07:25:10.332Z,95241.00
2023-04-12T07:27:43.015Z,95228.47
2023-04-12T07:30:15.854Z,95234.69
2023-04-12T07:32:48.766Z,95220.97
2023-04-12T07:35:22.183Z,95218.00
2023-04-12T07:37:56.229Z,95214.22
2023-04-12T07:40:28.953Z,95215.03
2023-04-12T07:43:01.552Z,95223.91
2023-04-12T07:45:34.189Z,95206.28
2023-04-12T07:48:07.433Z,95214.00
2023-04-12T07:50:41.213Z,95209.88
2023-04-12T07:53:22.286Z,95206.44
2023-04-12T07:55:55.512Z,95212.63
2023-04-12T07:58:28.206Z,95206.88
2023-04-12T08:01:01.400Z,95205.34
2023-04-12T08:03:34.388Z,95204.59
2023-04-12T08:06:08.045Z,95208.81
2023-04-12T08:08:42.255Z,95194.59
2023-04-12T08:11:14.926Z,95199.16
2023-04-12T08:13:47.630Z,95189.53
2023-04-12T08:16:21.112Z,95195.25
2023-04-12T08:18:53.869Z,95195.59
2023-04-12T08:21:27.688Z,95183.22
2023-04-12T08:24:01.772Z,95191.66
2023-04-12T08:26:34.410Z,95200.06
2023-04-12T08:29:07.130Z,95198.06
2023-04-12T08:31:40.188Z,95198.72
2023-04-12T08:34:12.942Z,95202.50
2023-04-12T08:36:45.774Z,95198.22
2023-04-12T08:39:19.878Z,95201.56
2023-04-12T08:41:53.022Z,95194.94
2023-04-12T08:44:34.952Z,95180.25
2023-04-12T08:47:08.549Z,95173.19
2023-04-12T08:49:41.381Z,95173.50
2023-04-12T08:52:14.433Z,95168.41
2023-04-12T08:54:48.453Z,95167.91
2023-04-12T08:57:21.530Z,95163.16
2023-04-12T08:59:55.591Z,95162.63
2023-04-12T09:02:28.473Z,95159.00
2023-04-12T09:05:01.376Z,95161.16
2023-04-12T09:07:34.853Z,95154.84
2023-04-12T09:10:09.893Z,95160.97
2023-04-12T09:12:46.978Z,95167.47
2023-04-12T09:15:19.615Z,95155.03
2023-04-12T09:18:03.760Z,95161.50
2023-04-12T09:20:36.722Z,95140.56
2023-04-12T09:23:19.875Z,95131.56
2023-04-12T09:25:54.029Z,95147.00
2023-04-12T09:28:27.216Z,95141.13
2023-04-12T09:31:00.579Z,95139.88
2023-04-12T09:33:37.252Z,95140.97
2023-04-12T09:36:13.730Z,95137.66
2023-04-12T09:38:59.440Z,95145.63
2023-04-12T09:41:33.563Z,95138.44
2023-04-12T09:44:06.321Z,95135.19
2023-04-12T09:46:53.548Z,95141.47
2023-04-12T09:49:37.226Z,95141.22
2023-04-12T09:52:11.180Z,95142.56
2023-04-12T09:54:44.652Z,95116.75
2023-04-12T09:57:20.941Z,95124.25
2023-04-12T09:59:54.509Z,95129.09
2023-04-12T10:02:28.911Z,95119.47
2023-04-12T10:05:02.370Z,95122.66
2023-04-12T10:07:37.678Z,95113.41
2023-04-12T10:10:12.506Z,95130.56
2023-04-12T10:12:47.823Z,95119.41
2023-04-12T10:15:21.822Z,95131.56
2023-04-12T10:17:55.519Z,95142.59
2023-04-12T10:20:29.607Z,95143.13
2023-04-12T10:23:02.944Z,95132.19
2023-04-12T10:25:36.064Z,95135.13
2023-04-12T10:28:17.445Z,95137.44
2023-04-12T10:30:52.182Z,95132.75
2023-04-12T10:33:27.005Z,95138.19
2023-04-12T10:36:03.019Z,95141.25
2023-04-12T10:38:47.182Z,95138.44
2023-04-12T10:41:21.112Z,95134.13
2023-04-12T10:44:15.349Z,95138.25
2023-04-12T10:46:48.699Z,95138.53
2023-04-12T10:49:21.455Z,95136.03
2023-04-12T10:52:08.991Z,95141.81
2023-04-12T10:54:41.904Z,95140.63
2023-04-12T10:57:35.736Z,95131.72
2023-04-12T11:00:10.751Z,95127.13
2023-04-12T11:03:02.458Z,95160.28
2023-04-12T11:05:50.148Z,95117.25
2023-04-12T11:08:24.363Z,95147.78
2023-04-12T11:11:03.575Z,95140.34
2023-04-12T11:13:37.178Z,95138.69
2023-04-12T11:16:12.874Z,95138.22
2023-04-12T11:18:47.650Z,95139.78
2023-04-12T11:21:20.608Z,95148.56
2023-04-12T11:23:54.611Z,95134.13
2023-04-12T11:26:31.034Z,95142.56
2023-04-12T11:29:08.000Z,95136.59
2023-04-12T11:31:42.060Z,95122.22
2023-04-12T11:34:16.114Z,95127.88
2023-04-12T11:36:50.573Z,95125.44
2023-04-12T11:39:23.244Z,95123.75
2023-04-12T11:41:55.924Z,95124.03
2023-04-12T11:44:28.636Z,95115.78
2023-04-12T11:47:02.783Z,95109.06
2023-04-12T11:49:35.577Z,95111.22
2023-04-12T11:52:08.803Z,95105.63
2023-04-12T11:54:45.785Z,95115.81
2023-04-12T11:57:19.517Z,95118.56
2023-04-12T11:59:52.349Z,95113.94
2023-04-12T12:02:30.388Z,95121.25
2023-04-12T12:05:07.024Z,95115.34
2023-04-12T12:07:40.182Z,95110.94
2023-04-12T12:10:18.429Z,95113.13
2023-04-12T12:12:58.654Z,95127.31
2023-04-12T12:15:31.861Z,95109.41
2023-04-12T12:18:08.230Z,95110.91
2023-04-12T12:20:42.568Z,95113.22
2023-04-12T12:23:28.153Z,95107.78
2023-04-12T12:26:17.000Z,95108.59
2023-04-12T12:28:52.505Z,95111.34
2023-04-12T12:31:26.311Z,95102.50
2023-04-12T12:34:01.119Z,95106.41
2023-04-12T12:36:34.567Z,95116.13
2023-04-12T12:39:09.993Z,95113.41
2023-04-12T12:41:42.693Z,95123.47
2023-04-12T12:44:15.399Z,95111.47
2023-04-12T12:46:56.830Z,95118.78
2023-04-12T12:49:31.756Z,95118.78
2023-04-12T12:52:04.385Z,95121.44
2023-04-12T12:54:41.436Z,95110.97
2023-04-12T12:57:14.615Z,95113.66
2023-04-12T12:59:47.365Z,95109.00
2023-04-12T13:02:20.209Z,95100.50
2023-04-12T13:04:54.621Z,95094.03
2023-04-12T13:07:27.483Z,95083.66
2023-04-12T13:10:00.445Z,95095.41
2023-04-12T13:12:33.372Z,95080.00
2023-04-12T13:15:20.188Z,95086.31
2023-04-12T13:17:54.834Z,95085.25
2023-04-12T13:20:29.078Z,95083.44
2023-04-12T13:23:01.881Z,95095.91
2023-04-12T13:25:34.487Z,95083.22
2023-04-12T13:28:07.267Z,95077.16
2023-04-12T13:30:39.917Z,95064.16
2023-04-12T13:33:16.557Z,95077.81
2023-04-12T13:35:53.314Z,95076.06
2023-04-12T13:38:26.014Z,95072.00
2023-04-12T13:40:58.633Z,95074.91
2023-04-12T13:43:31.357Z,95069.69
2023-04-12T13:46:04.069Z,95064.03
2023-04-12T13:48:37.460Z,95054.94
2023-04-12T13:51:11.712Z,95040.75
2023-04-12T13:53:44.444Z,95038.59
2023-04-12T13:56:17.151Z,95037.16
2023-04-12T13:58:49.836Z,95033.38
2023-04-12T14:01:23.713Z,95031.94
2023-04-12T14:03:57.119Z,95033.53
2023-04-12T14:06:31.693Z,95026.63
2023-04-12T14:09:05.666Z,95032.44
2023-04-12T14:11:48.106Z,95032.84
2023-04-12T14:14:20.767Z,95032.03
2023-04-12T14:16:54.807Z,95033.16
2023-04-12T14:19:27.628Z,95023.09
2023-04-12T14:22:02.538Z,95026.13
2023-04-12T14:24:35.378Z,95011.00
2023-04-12T14:27:08.021Z,95012.91
2023-04-12T14:29:40.781Z,95009.34
2023-04-12T14:32:13.448Z,95008.88
2023-04-12T14:34:46.538Z,95010.78
2023-04-12T14:37:20.634Z,95012.28
2023-04-12T14:39:54.487Z,95016.09
2023-04-12T14:42:27.109Z,95012.94
2023-04-12T14:44:59.809Z,95013.31
2023-04-12T14:47:32.547Z,95010.16
2023-04-12T14:50:05.466Z,95020.56
2023-04-12T14:52:39.519Z,95014.69
2023-04-12T14:55:12.185Z,95014.28
2023-04-12T14:57:45.103Z,95010.78
2023-04-12T15:00:18.582Z,95015.75
2023-04-12T15:02:51.410Z,95007.66
2023-04-12T15:05:24.420Z,95018.81
2023-04-12T15:07:58.481Z,95009.94
2023-04-12T15:10:31.574Z,95003.78
2023-04-12T15:13:04.238Z,95002.25
2023-04-12T15:15:37.003Z,95006.88
2023-04-12T15:18:10.491Z,95011.19
2023-04-12T15:20:43.627Z,95016.69
2023-04-12T15:23:17.655Z,95023.69
2023-04-12T15:25:50.605Z,95021.03
2023-04-12T15:28:23.284Z,95029.63
2023-04-12T15:30:56.289Z,95021.63
2023-04-12T15:33:29.378Z,95029.50
2023-04-12T15:36:02.375Z,95032.31
2023-04-12T15:38:41.508Z,95036.66
2023-04-12T15:41:14.222Z,95037.16
2023-04-12T15:43:49.471Z,95038.03
2023-04-12T15:46:22.366Z,95029.63
2023-04-12T15:48:55.256Z,95029.34
2023-04-12T15:51:28.283Z,95038.28
2023-04-12T15:54:02.513Z,95023.34
2023-04-12T15:56:35.862Z,95033.41
2023-04-12T15:59:09.186Z,95031.91
2023-04-12T16:01:41.932Z,95021.19
2023-04-12T16:04:16.209Z,95018.53
2023-04-12T16:06:48.964Z,95020.09
2023-04-12T16:09:24.096Z,95017.03
2023-04-12T16:11:57.409Z,95022.47
2023-04-12T16:14:30.620Z,95031.72
2023-04-12T16:17:03.744Z,95025.59
2023-04-12T16:19:36.445Z,95024.00
2023-04-12T16:22:09.129Z,95020.59
2023-04-12T16:24:43.219Z,95019.03
2023-04-12T16:27:15.880Z,95027.16
2023-04-12T16:29:48.937Z,95033.31
2023-04-12T16:32:21.795Z,95025.66
2023-04-12T16:34:54.694Z,95039.13
2023-04-12T16:37:29.001Z,95043.75
2023-04-12T16:40:06.875Z,95041.06
2023-04-12T16:42:39.864Z,95029.53
2023-04-12T16:45:14.463Z,95034.16
2023-04-12T16:47:47.563Z,95011.88
2023-04-12T16:52:54.258Z,95014.97
2023-04-12T16:55:30.068Z,95008.41
2023-04-12T16:58:02.781Z,95013.81
2023-04-12T17:00:36.051Z,95016.13
2023-04-12T17:03:09.013Z,95014.59
2023-04-12T17:05:42.347Z,95013.06
2023-04-12T17:08:15.741Z,95000.00
2023-04-12T17:10:50.101Z,94999.63
2023-04-12T17:13:23.331Z,95001.16
2023-04-12T17:15:56.013Z,94997.72
2023-04-12T17:18:28.748Z,94991.56
2023-04-12T17:21:01.947Z,95002.34
2023-04-12T17:23:36.728Z,94990.38
2023-04-12T17:26:11.479Z,94996.53
2023-04-12T17:28:44.158Z,94989.63
2023-04-12T17:31:17.444Z,94990.78
2023-04-12T17:33:50.267Z,94995.75
2023-04-12T17:36:22.982Z,94987.69
2023-04-12T17:38:57.168Z,94990.38
2023-04-12T17:41:31.751Z,94991.16
2023-04-12T17:44:04.444Z,94993.06
2023-04-12T17:46:37.433Z,95007.28
2023-04-12T17:49:10.099Z,94999.97
2023-04-12T17:51:42.740Z,95006.09
2023-04-12T17:54:15.378Z,95003.41
2023-04-12T17:56:51.440Z,95009.56
2023-04-12T17:59:24.345Z,95008.00
2023-04-12T18:01:57.177Z,95027.97
2023-04-12T18:04:30.345Z,95023.34
2023-04-12T18:07:04.485Z,95028.72
2023-04-12T18:09:38.361Z,95040.63
2023-04-12T18:12:13.143Z,95050.97
2023-04-12T18:14:45.902Z,95051.72
2023-04-12T18:17:18.862Z,95071.28
2023-04-12T18:19:51.674Z,95105.78
2023-04-12T18:22:24.708Z,95116.53
2023-04-12T18:24:57.450Z,95123.78
2023-04-12T18:27:32.549Z,95136.78
2023-04-12T18:30:05.613Z,95139.44
2023-04-12T18:32:38.377Z,95141.97
2023-04-12T18:35:11.470Z,95146.50
2023-04-12T18:37:44.275Z,95143.69
2023-04-12T18:40:18.168Z,95150.06
2023-04-12T18:42:52.634Z,95153.00
2023-04-12T18:45:26.245Z,95163.97
2023-04-12T18:48:00.539Z,95161.50
2023-04-12T18:50:33.617Z,95160.56
2023-04-12T18:53:06.598Z,95165.03
2023-04-12T18:55:39.518Z,95166.81
2023-04-12T18:58:13.905Z,95183.88
2023-04-12T19:00:47.024Z,95175.72
2023-04-12T19:03:19.861Z,95167.19
2023-04-12T19:05:54.895Z,95176.25
2023-04-12T19:08:29.114Z,95173.84
2023-04-12T19:11:02.053Z,95171.03
2023-04-12T19:13:38.830Z,95177.06
2023-04-12T19:16:13.568Z,95173.94
2023-04-12T19:18:48.100Z,95175.78
2023-04-12T19:21:22.606Z,95189.47
2023-04-12T19:23:57.287Z,95199.34
2023-04-12T19:26:32.175Z,95194.28
2023-04-12T19:29:08.056Z,95188.53
2023-04-12T19:31:44.782Z,95196.91
2023-04-12T19:34:20.202Z,95184.28
2023-04-12T19:36:54.444Z,95194.22
2023-04-12T19:39:28.172Z,95188.53
2023-04-12T19:42:01.868Z,95200.34
2023-04-12T19:44:40.423Z,95194.56
2023-04-12T19:47:15.346Z,95207.22
2023-04-12T19:49:49.335Z,95220.59
2023-04-12T19:52:24.375Z,95216.38
2023-04-12T19:54:58.274Z,95225.94
2023-04-12T19:57:33.102Z,95230.53
2023-04-12T20:00:13.743Z,95232.41
2023-04-12T20:02:47.511Z,95228.97
2023-04-12T20:05:21.191Z,95218.25
2023-04-12T20:07:56.343Z,95223.97
2023-04-12T20:10:29.536Z,95200.25
2023-04-12T20:13:05.167Z,95202.13
2023-04-12T20:15:41.811Z,95189.13
2023-04-12T20:18:16.474Z,95190.63
2023-04-12T20:20:50.013Z,95190.97
2023-04-12T20:23:24.408Z,95196.69
2023-04-12T20:25:59.633Z,95197.38
2023-04-12T20:28:34.034Z,95190.09
2023-04-12T20:31:10.135Z,95185.53
2023-04-12T20:33:44.579Z,95192.78
2023-04-12T20:36:19.043Z,95178.28
2023-04-12T20:38:53.682Z,95176.34
2023-04-12T20:41:28.174Z,95178.66
2023-04-12T20:44:01.133Z,95180.56
2023-04-12T20:46:38.315Z,95177.88
2023-04-12T20:49:12.148Z,95171.00
2023-04-12T20:51:48.220Z,95179.78
2023-04-12T20:54:24.448Z,95174.03
2023-04-12T20:56:59.301Z,95179.00
2023-04-12T20:59:33.097Z,95177.50
2023-04-12T21:02:09.333Z,95173.28
2023-04-12T21:04:43.337Z,95173.66
2023-04-12T21:07:16.196Z,95177.88
2023-04-12T21:09:49.424Z,95175.22
2023-04-12T21:12:23.949Z,95197.00
2023-04-12T21:14:57.729Z,95247.44
2023-04-12T21:17:32.008Z,95317.75
2023-04-12T21:20:13.922Z,95312.75
2023-04-12T21:22:48.099Z,95332.97
2023-04-12T21:25:21.654Z,95313.34
2023-04-12T21:27:54.929Z,95336.84
2023-04-12T21:30:27.968Z,95328.59
2023-04-12T21:33:02.319Z,95330.69
2023-04-12T21:35:35.297Z,95331.59
2023-04-12T21:38:08.338Z,95331.38
2023-04-12T21:40:41.189Z,95336.50
2023-04-12T21:43:13.941Z,95344.38
2023-04-12T21:45:47.091Z,95346.44
2023-04-12T21:48:21.291Z,95308.81
2023-04-12T21:50:53.966Z,95326.22
2023-04-12T21:53:27.753Z,95325.28
2023-04-12T21:56:01.224Z,95330.88
2023-04-12T21:58:34.254Z,95340.28
2023-04-12T22:01:07.558Z,95352.75
2023-04-12T22:03:42.309Z,95352.59
2023-04-12T22:06:15.387Z,95354.41
2023-04-12T22:08:48.269Z,95359.22
2023-04-12T22:11:21.188Z,95372.50
2023-04-12T22:13:54.407Z,95362.06
2023-04-12T22:16:28.121Z,95364.22
2023-04-12T22:19:02.639Z,95350.00
2023-04-12T22:21:35.907Z,95369.38
2023-04-12T22:24:09.065Z,95366.94
2023-04-12T22:26:42.341Z,95372.53
2023-04-12T22:29:17.849Z,95368.94
2023-04-12T22:31:50.611Z,95381.84
2023-04-12T22:34:25.013Z,95367.31
2023-04-12T22:36:59.989Z,95358.88
2023-04-12T22:39:32.805Z,95362.31
2023-04-12T22:42:06.450Z,95362.22
2023-04-12T22:44:39.395Z,95356.88
2023-04-12T22:47:13.911Z,95359.56
2023-04-12T22:49:50.507Z,95359.91
2023-04-12T22:52:23.593Z,95355.34
2023-04-12T22:54:57.109Z,95350.78
2023-04-12T22:57:29.940Z,95356.09
2023-04-12T23:00:04.343Z,95358.78
2023-04-12T23:02:37.790Z,95363.78
2023-04-12T23:05:14.444Z,95364.22
2023-04-12T23:07:49.198Z,95363.09
2023-04-12T23:10:23.036Z,95362.00
2023-04-12T23:12:55.762Z,95371.53
2023-04-12T23:15:28.467Z,95363.19
2023-04-12T23:18:01.842Z,95365.09
2023-04-12T23:20:36.910Z,95371.63
2023-04-12T23:23:10.051Z,95365.94
2023-04-12T23:25:42.836Z,95367.50
2023-04-12T23:28:19.429Z,95369.09
2023-04-12T23:30:52.631Z,95369.88
2023-04-12T23:33:25.408Z,95370.31
2023-04-12T23:36:02.790Z,95366.16
2023-04-12T23:38:36.189Z,95364.28
2023-04-12T23:41:12.639Z,95361.94
2023-04-12T23:43:45.493Z,95366.16
2023-04-12T23:46:18.391Z,95368.38
2023-04-12T23:48:51.248Z,95373.03
2023-04-12T23:51:25.297Z,95369.53
2023-04-12T23:53:58.272Z,95355.06
2023-04-12T23:56:31.587Z,95360.81
2023-04-12T23:59:04.371Z,95360.81
